Stations météo

réclame
Mon MeteoGroup
Martina Franca, Italie (16318): Température de l'air & dewpoint: 12.02.2019 01:00:00 - 18.02.2019 01:00:00 (CET)Martina Franca, Italie (16318): Vitesse du vent: 12.02.2019 01:00:00 - 18.02.2019 01:00:00 (CET)Martina Franca, Italie (16318): Direction du vent: 12.02.2019 01:00:00 - 18.02.2019 01:00:00 (CET)Martina Franca, Italie (16318): reduced air pressure: 12.02.2019 01:00:00 - 18.02.2019 01:00:00 (CET)Martina Franca, Italie (16318): Quantités de précipitations: 12.02.2019 01:00:00 - 18.02.2019 01:00:00 (CET)
Date & Time tt [°C] td [°C] ff [km/h] ff [knt] dd ppp [hPa] rr [mm]
18.02.2019 01:00:00 - - - - - - -
18.02.2019 00:00:00 - - - - - - -
17.02.2019 23:00:00 - - - - - - -
17.02.2019 22:00:00 5,0 - - - - - -
17.02.2019 21:00:00 6,6 -2,2 4 2 N 1028,2 -
17.02.2019 20:00:00 - - - - - - -
17.02.2019 19:00:00 - - - - - - -
17.02.2019 18:00:00 - - - - - - -
17.02.2019 17:00:00 - - - - - - -
17.02.2019 16:00:00 - - - - - - -
17.02.2019 15:00:00 - - - - - - -
17.02.2019 14:00:00 - - - - - - -
17.02.2019 13:00:00 - - - - - - -
17.02.2019 12:00:00 - - - - - - -
17.02.2019 11:00:00 - - - - - - -
17.02.2019 10:00:00 - - - - - - -
17.02.2019 09:00:00 - - - - - - -
17.02.2019 08:00:00 - - - - - - -
17.02.2019 07:00:00 - - - - - - -
17.02.2019 06:00:00 - - - - - - -
17.02.2019 05:00:00 - - - - - - -
17.02.2019 04:00:00 - - - - - - -
17.02.2019 03:00:00 - - - - - - -
17.02.2019 02:00:00 3,3 2,1 - - - 1029,7 -
17.02.2019 01:00:00 3,7 2,3 21 11 N 1029,6 -
17.02.2019 00:00:00 4,7 3,5 - - - 1029,4 -
16.02.2019 23:00:00 4,8 3,6 - - - - -
16.02.2019 22:00:00 - - - - - - -
16.02.2019 21:00:00 - - - - - - -
16.02.2019 20:00:00 - - - - - - -
16.02.2019 19:00:00 - - - - - - -
16.02.2019 18:00:00 - - - - - - -
16.02.2019 17:00:00 - - - - - - -
16.02.2019 16:00:00 - - - - - - -
16.02.2019 15:00:00 - - - - - - -
16.02.2019 14:00:00 - - - - - - -
16.02.2019 13:00:00 - - - - - - -
16.02.2019 12:00:00 - - - - - - -
16.02.2019 11:00:00 - - - - - - -
16.02.2019 10:00:00 7,0 3,0 - - - - -
16.02.2019 09:00:00 - - - - - - -
16.02.2019 08:00:00 - - - - - - -
16.02.2019 07:00:00 - - - - - - -
16.02.2019 06:00:00 - - - - - - -
16.02.2019 05:00:00 - - - - - - -
16.02.2019 04:00:00 - - - - - - -
16.02.2019 03:00:00 - - - - - - -
16.02.2019 02:00:00 - - - - - - -
16.02.2019 01:00:00 - - - - - - -
16.02.2019 00:00:00 - - - - - - -
15.02.2019 23:00:00 - - - - - - -
15.02.2019 22:00:00 5,9 -1,1 16 9 ENE - -
15.02.2019 21:00:00 5,9 -1,4 - - - - -
15.02.2019 20:00:00 5,8 -0,6 - - - - -
15.02.2019 19:00:00 3,2 0,7 - - - - -
15.02.2019 18:00:00 - - - - - - -
15.02.2019 17:00:00 - - - - - - -
15.02.2019 16:00:00 - - - - - - -
15.02.2019 15:00:00 - - - - - - -
15.02.2019 14:00:00 - - - - - - -
15.02.2019 13:00:00 8,0 1,7 - - - - -
15.02.2019 12:00:00 - - - - - - -
15.02.2019 11:00:00 9,4 - - - - - -
15.02.2019 10:00:00 - - - - - - -
15.02.2019 09:00:00 6,7 3,6 15 8 NW - -
15.02.2019 08:00:00 - - - - - - -
15.02.2019 07:00:00 4,8 1,6 13 7 N - -
15.02.2019 06:00:00 5,1 2,2 13 7 N - -
15.02.2019 05:00:00 4,8 2,8 15 8 NNE - -
15.02.2019 04:00:00 5,1 3,3 11 6 NNE - -
15.02.2019 03:00:00 5,6 4,5 13 7 N - -
15.02.2019 02:00:00 5,8 4,7 16 9 N - -
15.02.2019 01:00:00 6,0 4,8 18 10 N - -
15.02.2019 00:00:00 6,2 4,8 18 10 NNW - -
14.02.2019 23:00:00 5,6 4,1 21 11 NNW - -
14.02.2019 22:00:00 5,7 4,0 24 13 N - -
14.02.2019 21:00:00 5,7 3,8 26 14 N - -
14.02.2019 20:00:00 6,3 4,3 29 16 N - -
14.02.2019 19:00:00 6,5 4,1 29 16 N - -
14.02.2019 18:00:00 7,1 4,9 34 18 N - -
14.02.2019 17:00:00 7,7 5,1 35 19 N - -
14.02.2019 16:00:00 8,0 5,3 31 17 N - -
14.02.2019 15:00:00 8,0 4,7 - - - - -
14.02.2019 14:00:00 - - - - - - -
14.02.2019 13:00:00 - - - - - - -
14.02.2019 12:00:00 - - - - - - -
14.02.2019 11:00:00 - - - - - - -
14.02.2019 10:00:00 - - - - - - -
14.02.2019 09:00:00 5,5 0,6 24 13 N - -
14.02.2019 08:00:00 4,7 -0,4 22 12 N - -
14.02.2019 07:00:00 3,1 -3,8 15 8 N - 0,0
14.02.2019 06:00:00 2,6 -3,4 11 6 NNW - -
14.02.2019 05:00:00 2,4 -3,6 15 8 NNW - -
14.02.2019 04:00:00 2,1 -3,9 21 11 NNW - -
14.02.2019 03:00:00 2,6 -4,0 28 15 N - -
14.02.2019 02:00:00 2,7 -4,6 31 17 N - -
14.02.2019 01:00:00 2,5 -6,0 21 11 N - 0,0
14.02.2019 00:00:00 2,6 -5,9 18 10 N - -
13.02.2019 23:00:00 2,8 -5,2 16 9 N - -
13.02.2019 22:00:00 2,9 -6,9 16 9 NNE - -
13.02.2019 21:00:00 3,5 -6,1 28 15 NNE - -
13.02.2019 20:00:00 - - - - - - -
13.02.2019 19:00:00 - - - - - - 0,0
13.02.2019 18:00:00 - - - - - - -
13.02.2019 17:00:00 - - - - - - -
13.02.2019 16:00:00 - - - - - - -
13.02.2019 15:00:00 4,5 -6,2 28 15 N - -
13.02.2019 14:00:00 5,4 -5,7 35 19 N - -
13.02.2019 13:00:00 4,8 -5,7 31 17 N - 0,0
13.02.2019 12:00:00 3,9 -4,9 29 16 N - -
13.02.2019 11:00:00 3,9 -4,7 35 19 N - -
13.02.2019 10:00:00 4,2 -6,0 41 22 ENE - -
13.02.2019 09:00:00 3,6 -6,2 41 22 N - -
13.02.2019 08:00:00 2,8 -6,7 26 14 N - -
13.02.2019 07:00:00 2,8 -6,7 26 14 WNW - 0,0
13.02.2019 06:00:00 2,6 -6,1 34 18 N - -
13.02.2019 05:00:00 2,7 -6,3 31 17 N - -
13.02.2019 04:00:00 3,3 -5,5 22 12 N - -
13.02.2019 03:00:00 3,7 -6,4 26 14 S - -
13.02.2019 02:00:00 3,8 -6,9 24 13 NNE - -
13.02.2019 01:00:00 3,7 -6,7 28 15 NNE - 0,0
13.02.2019 00:00:00 3,8 -6,3 21 11 ESE - -
12.02.2019 23:00:00 4,1 -6,1 24 13 N - -
12.02.2019 22:00:00 3,9 -5,4 24 13 W - -
12.02.2019 21:00:00 4,4 -4,5 24 13 N - -
12.02.2019 20:00:00 4,4 -3,5 22 12 N - -
12.02.2019 19:00:00 4,0 -4,1 21 11 N - -
12.02.2019 18:00:00 3,9 -4,4 21 11 N - -
12.02.2019 17:00:00 4,8 -3,1 22 12 N - -
12.02.2019 16:00:00 5,9 -2,6 21 11 N - -
12.02.2019 15:00:00 7,1 -0,2 22 12 N - -
12.02.2019 14:00:00 6,6 -0,9 21 11 N - -
12.02.2019 13:00:00 8,0 0,4 22 12 N - -
12.02.2019 12:00:00 7,7 0,1 22 12 N - -
12.02.2019 11:00:00 5,8 4,1 13 7 N - -
12.02.2019 10:00:00 5,4 2,4 21 11 N - -
12.02.2019 09:00:00 4,0 2,5 13 7 N - -
12.02.2019 08:00:00 3,5 2,1 15 8 NNW - -
12.02.2019 07:00:00 2,9 1,6 16 9 NNW - -
12.02.2019 06:00:00 3,3 2,1 24 13 NNW - -
12.02.2019 05:00:00 3,7 2,8 18 10 N - -
12.02.2019 04:00:00 3,5 2,6 8 4 N - -
12.02.2019 03:00:00 3,3 2,4 16 9 NNW - -
12.02.2019 02:00:00 3,0 2,0 26 14 NW - -
12.02.2019 01:00:00 3,3 2,3 26 14 NNW - -

tt = Température de l'air
td = dewpoint
ff = Vitesse du vent
dd = Direction du vent
ppp = reduced air pressure
rr = Quantités de précipitations

stations d'obs. à proximité